Time;durP1;ratioP1;P1;durP2;ratioP2;P2;SDS_P1;SDS_P2;PMS_P1;PMS_P2;Temp;Humidity;BMP_temperature;BMP_pressure;BME280_temperature;BME280_humidity;BME280_pressure;Samples;Min_cycle;Max_cycle;Signal;HPM_P1;HPM_P2
2023/10/11 00:02:14;;;;;;;28.67;15.13;;;;;;;;;;6194406;23;20099;-84
2023/10/11 00:04:41;;;;;;;32.22;13.32;;;;;;;;;;6218364;23;20016;-83
2023/10/11 00:07:09;;;;;;;34.38;13.13;;;;;;;;;;6193378;23;20047;-83
2023/10/11 00:09:35;;;;;;;29.77;13.88;;;;;;;;;;6218827;23;20460;-83
2023/10/11 00:12:02;;;;;;;29.35;13.38;;;;;;;;;;6218880;23;20020;-83
2023/10/11 00:14:29;;;;;;;32.75;13.07;;;;;;;;;;6193817;23;20353;-83
2023/10/11 00:16:56;;;;;;;31.27;14.30;;;;;;;;;;6218420;23;20055;-83
2023/10/11 00:19:27;;;;;;;30.40;13.48;;;;;;;;;;6192951;23;20012;-83
2023/10/11 00:21:53;;;;;;;29.42;12.70;;;;;;;;;;6194073;23;20425;-83
2023/10/11 00:24:23;;;;;;;29.45;13.52;;;;;;;;;;6193082;23;20032;-83
2023/10/11 00:26:49;;;;;;;28.75;14.40;;;;;;;;;;6194643;23;20074;-83
2023/10/11 00:29:16;;;;;;;25.45;12.25;;;;;;;;;;6245439;23;20027;-84
2023/10/11 00:31:42;;;;;;;26.60;12.40;;;;;;;;;;6194412;23;20401;-83
2023/10/11 00:34:10;;;;;;;27.75;12.75;;;;;;;;;;6217929;23;20034;-83
2023/10/11 00:36:36;;;;;;;27.60;13.57;;;;;;;;;;6218351;23;20055;-83
2023/10/11 00:39:07;;;;;;;32.58;13.35;;;;;;;;;;6193577;23;20024;-84
2023/10/11 00:41:39;;;;;;;27.35;12.85;;;;;;;;;;6194306;23;20020;-84
2023/10/11 00:44:08;;;;;;;29.67;12.65;;;;;;;;;;6219098;23;20089;-83
2023/10/11 00:49:21;;;;;;;30.75;14.00;;;;;;;;;;6217907;23;20453;-84
2023/10/11 00:51:47;;;;;;;27.50;12.88;;;;;;;;;;6193931;23;20415;-84
2023/10/11 00:54:15;;;;;;;34.83;13.52;;;;;;;;;;6192435;23;20023;-84
2023/10/11 00:56:43;;;;;;;34.28;13.65;;;;;;;;;;6193422;23;20016;-84
2023/10/11 00:59:13;;;;;;;28.08;12.77;;;;;;;;;;6193602;23;20070;-84
2023/10/11 01:01:39;;;;;;;33.38;13.63;;;;;;;;;;6192447;23;20016;-84
2023/10/11 01:04:06;;;;;;;29.77;14.05;;;;;;;;;;6193332;23;20051;-84
2023/10/11 01:06:34;;;;;;;30.95;12.90;;;;;;;;;;6192025;23;20492;-83
2023/10/11 01:09:00;;;;;;;25.95;12.90;;;;;;;;;;6195037;23;20027;-83
2023/10/11 01:11:28;;;;;;;27.73;12.05;;;;;;;;;;6195350;23;20019;-84
2023/10/11 01:13:54;;;;;;;29.20;13.50;;;;;;;;;;6220179;23;20020;-83
2023/10/11 01:16:26;;;;;;;29.25;13.10;;;;;;;;;;6195202;23;20012;-84
2023/10/11 01:18:53;;;;;;;28.70;12.90;;;;;;;;;;6195570;23;20016;-84
2023/10/11 01:21:19;;;;;;;24.90;13.38;;;;;;;;;;6194381;23;20020;-84
2023/10/11 01:23:45;;;;;;;25.50;12.27;;;;;;;;;;6195057;23;20044;-83
2023/10/11 01:26:11;;;;;;;26.58;11.25;;;;;;;;;;6195019;23;20012;-84
2023/10/11 01:28:51;;;;;;;24.33;11.68;;;;;;;;;;6194878;23;20372;-84
2023/10/11 01:31:17;;;;;;;28.52;11.93;;;;;;;;;;6195012;23;20013;-83
2023/10/11 01:33:49;;;;;;;27.67;12.15;;;;;;;;;;6220480;23;20020;-84
2023/10/11 01:36:15;;;;;;;28.55;12.00;;;;;;;;;;6194350;23;20102;-84
2023/10/11 01:38:48;;;;;;;27.85;11.15;;;;;;;;;;6195299;23;20016;-83
2023/10/11 01:41:21;;;;;;;25.10;11.57;;;;;;;;;;6195098;23;20016;-83
2023/10/11 01:43:49;;;;;;;24.63;11.93;;;;;;;;;;6246458;23;20016;-86
2023/10/11 01:46:24;;;;;;;26.48;11.20;;;;;;;;;;6194728;23;20026;-86
2023/10/11 01:48:51;;;;;;;25.92;12.10;;;;;;;;;;6219930;23;20016;-86
2023/10/11 01:51:21;;;;;;;21.02;11.02;;;;;;;;;;6193955;23;20448;-86
2023/10/11 01:53:50;;;;;;;24.23;11.27;;;;;;;;;;6194946;23;20020;-86
2023/10/11 01:56:17;;;;;;;27.20;10.75;;;;;;;;;;6194809;23;20016;-86
2023/10/11 01:58:43;;;;;;;26.20;11.07;;;;;;;;;;6194787;23;20016;-85
2023/10/11 02:01:23;;;;;;;23.73;10.32;;;;;;;;;;6195074;23;20020;-83
2023/10/11 02:03:59;;;;;;;25.50;10.55;;;;;;;;;;6194742;23;20031;-84
2023/10/11 02:06:25;;;;;;;22.08;11.15;;;;;;;;;;6194759;23;20027;-83
2023/10/11 02:08:52;;;;;;;22.65;11.10;;;;;;;;;;6219628;23;20092;-83
2023/10/11 02:11:24;;;;;;;25.33;10.38;;;;;;;;;;6194516;23;20341;-83
2023/10/11 02:13:50;;;;;;;25.50;10.70;;;;;;;;;;6195054;23;20425;-83
2023/10/11 02:16:17;;;;;;;25.35;10.63;;;;;;;;;;6219733;23;20023;-83
2023/10/11 02:18:44;;;;;;;22.48;10.88;;;;;;;;;;6194076;23;20039;-84
2023/10/11 02:21:11;;;;;;;26.48;11.13;;;;;;;;;;6194173;23;20016;-83
2023/10/11 02:23:39;;;;;;;21.58;10.60;;;;;;;;;;6195204;23;20016;-83
2023/10/11 02:26:12;;;;;;;24.27;10.00;;;;;;;;;;6219751;23;20024;-83
2023/10/11 02:28:39;;;;;;;26.75;10.55;;;;;;;;;;6195376;23;20012;-83
2023/10/11 02:31:09;;;;;;;28.05;10.80;;;;;;;;;;6194491;23;20445;-83
2023/10/11 02:33:35;;;;;;;27.08;10.15;;;;;;;;;;6194278;23;20020;-83
2023/10/11 02:36:17;;;;;;;27.85;10.77;;;;;;;;;;6194376;23;20350;-82
2023/10/11 02:38:54;;;;;;;21.10;10.32;;;;;;;;;;6194960;23;20019;-83
2023/10/11 02:41:24;;;;;;;33.60;10.57;;;;;;;;;;6219812;23;20020;-84
2023/10/11 02:43:51;;;;;;;32.70;11.13;;;;;;;;;;6194453;23;20066;-84
2023/10/11 02:46:18;;;;;;;23.13;9.90;;;;;;;;;;6194636;23;20062;-83
2023/10/11 02:48:46;;;;;;;23.20;10.13;;;;;;;;;;6194110;23;20069;-83
2023/10/11 02:51:17;;;;;;;26.50;10.70;;;;;;;;;;6218376;23;20091;-83
2023/10/11 02:53:46;;;;;;;22.30;10.20;;;;;;;;;;6194516;23;20012;-83
2023/10/11 02:56:14;;;;;;;24.02;9.98;;;;;;;;;;6219420;23;20388;-84
2023/10/11 02:58:41;;;;;;;26.20;10.13;;;;;;;;;;6219146;23;20475;-83
2023/10/11 03:01:22;;;;;;;25.95;9.77;;;;;;;;;;6194595;23;20094;-83
2023/10/11 03:03:48;;;;;;;25.02;10.32;;;;;;;;;;6218777;23;20103;-83
2023/10/11 03:06:15;;;;;;;27.15;9.90;;;;;;;;;;6194378;23;20386;-84
2023/10/11 03:08:41;;;;;;;26.98;10.40;;;;;;;;;;6194373;23;20467;-83
2023/10/11 03:11:15;;;;;;;21.38;9.40;;;;;;;;;;6194281;23;20162;-84
2023/10/11 03:13:42;;;;;;;21.02;9.95;;;;;;;;;;6194145;23;20020;-83
2023/10/11 03:16:18;;;;;;;25.63;9.60;;;;;;;;;;6194177;23;20024;-83
2023/10/11 03:18:50;;;;;;;23.65;10.95;;;;;;;;;;6218826;23;20023;-83
2023/10/11 03:21:19;;;;;;;21.48;9.80;;;;;;;;;;6194406;23;20023;-84
2023/10/11 03:23:47;;;;;;;22.33;9.40;;;;;;;;;;6194063;23;20023;-84
2023/10/11 03:26:33;;;;;;;20.10;9.85;;;;;;;;;;6193378;23;20012;-83
2023/10/11 03:28:59;;;;;;;27.38;10.43;;;;;;;;;;6194355;23;20507;-83
2023/10/11 03:31:28;;;;;;;24.17;10.23;;;;;;;;;;6193063;23;20035;-83
2023/10/11 03:33:57;;;;;;;22.50;9.30;;;;;;;;;;6193495;23;20322;-83
2023/10/11 03:36:43;;;;;;;24.92;10.00;;;;;;;;;;6193894;23;20460;-83
2023/10/11 03:39:15;;;;;;;21.63;9.48;;;;;;;;;;6194237;23;20396;-83
2023/10/11 03:41:50;;;;;;;20.30;9.25;;;;;;;;;;6194053;23;20070;-83
2023/10/11 03:44:20;;;;;;;24.75;9.68;;;;;;;;;;6192692;23;20047;-84
2023/10/11 03:46:56;;;;;;;23.27;9.65;;;;;;;;;;6193462;23;20074;-84
2023/10/11 03:51:48;;;;;;;27.55;10.98;;;;;;;;;;6219317;23;20058;-84
2023/10/11 03:54:24;;;;;;;25.58;9.80;;;;;;;;;;6193909;23;20020;-83
2023/10/11 03:56:55;;;;;;;19.23;9.93;;;;;;;;;;6219399;23;20038;-84
2023/10/11 03:59:25;;;;;;;25.23;9.75;;;;;;;;;;6218907;23;20020;-83
2023/10/11 04:01:51;;;;;;;24.90;10.52;;;;;;;;;;6193742;23;20051;-84
2023/10/11 04:04:20;;;;;;;21.83;10.07;;;;;;;;;;6218214;23;20019;-83
2023/10/11 04:07:04;;;;;;;25.23;10.27;;;;;;;;;;6194074;23;20012;-84
2023/10/11 04:09:37;;;;;;;24.17;9.55;;;;;;;;;;6194054;23;20510;-84
2023/10/11 04:12:10;;;;;;;22.73;9.88;;;;;;;;;;6193772;23;20091;-84
2023/10/11 04:14:40;;;;;;;29.60;10.25;;;;;;;;;;6192772;23;20307;-84
2023/10/11 04:17:09;;;;;;;21.52;9.43;;;;;;;;;;6192920;23;20020;-84
2023/10/11 04:19:40;;;;;;;23.98;9.63;;;;;;;;;;6218459;23;20027;-84
2023/10/11 04:22:12;;;;;;;25.92;10.90;;;;;;;;;;6194149;23;20374;-84
2023/10/11 04:24:39;;;;;;;21.70;10.02;;;;;;;;;;6192981;23;20468;-84
2023/10/11 04:29:50;;;;;;;27.38;10.15;;;;;;;;;;6218215;23;20020;-83
2023/10/11 04:35:21;;;;;;;28.08;11.07;;;;;;;;;;6245954;23;20349;-84
2023/10/11 04:37:54;;;;;;;22.38;10.40;;;;;;;;;;6193442;23;20079;-84
2023/10/11 04:40:38;;;;;;;23.38;10.68;;;;;;;;;;6193792;23;20430;-84
2023/10/11 04:43:05;;;;;;;25.20;10.32;;;;;;;;;;6194424;23;20016;-83
2023/10/11 04:45:43;;;;;;;24.88;10.65;;;;;;;;;;6194300;23;20119;-84
2023/10/11 04:48:09;;;;;;;24.27;10.52;;;;;;;;;;6195541;23;20016;-83
2023/10/11 04:50:41;;;;;;;25.98;10.25;;;;;;;;;;6195151;23;20086;-84
2023/10/11 04:53:08;;;;;;;22.92;10.88;;;;;;;;;;6220975;23;20079;-83
2023/10/11 04:55:35;;;;;;;34.83;11.10;;;;;;;;;;6220654;23;20095;-84
2023/10/11 04:58:06;;;;;;;22.98;10.73;;;;;;;;;;6195210;23;20074;-83
2023/10/11 05:00:43;;;;;;;24.27;10.70;;;;;;;;;;6194874;23;20157;-84
2023/10/11 05:03:10;;;;;;;23.02;10.73;;;;;;;;;;6196074;23;20463;-84
2023/10/11 05:05:58;;;;;;;29.17;11.68;;;;;;;;;;6220737;23;20016;-84
2023/10/11 05:08:51;;;;;;;23.73;10.93;;;;;;;;;;6195556;23;20460;-83
2023/10/11 05:11:25;;;;;;;24.38;10.68;;;;;;;;;;6217575;23;20031;-83
2023/10/11 05:14:10;;;;;;;27.67;10.63;;;;;;;;;;6195635;23;20053;-84
2023/10/11 05:16:38;;;;;;;24.00;10.63;;;;;;;;;;6194188;23;20016;-84
2023/10/11 05:19:05;;;;;;;28.73;10.75;;;;;;;;;;6195660;23;20408;-83
2023/10/11 05:21:38;;;;;;;31.15;11.70;;;;;;;;;;6195218;23;20016;-84
2023/10/11 05:24:27;;;;;;;28.90;10.98;;;;;;;;;;6195244;23;20095;-84
2023/10/11 05:27:04;;;;;;;26.20;11.15;;;;;;;;;;6194811;23;20082;-84
2023/10/11 05:29:36;;;;;;;27.55;11.43;;;;;;;;;;6194273;23;20313;-83
2023/10/11 05:32:23;;;;;;;27.92;10.88;;;;;;;;;;6220288;23;20043;-84
2023/10/11 05:34:51;;;;;;;27.20;11.65;;;;;;;;;;6195313;23;20463;-83
2023/10/11 05:51:12;;;;;;;21.02;10.25;;;;;;;;;;6117546;23;20479;-84
2023/10/11 05:53:41;;;;;;;19.42;10.65;;;;;;;;;;6195466;23;20046;-85
2023/10/11 05:56:08;;;;;;;22.83;10.07;;;;;;;;;;6195275;23;20376;-85
2023/10/11 05:58:35;;;;;;;21.70;11.55;;;;;;;;;;6219683;23;20032;-85
2023/10/11 06:01:06;;;;;;;36.25;11.57;;;;;;;;;;6194851;23;20046;-85
2023/10/11 06:03:35;;;;;;;31.02;11.88;;;;;;;;;;6195007;23;20020;-85
2023/10/11 06:06:13;;;;;;;23.30;11.45;;;;;;;;;;6195147;23;20028;-85
2023/10/11 06:08:44;;;;;;;21.58;10.90;;;;;;;;;;6197615;23;20016;-85
2023/10/11 06:11:12;;;;;;;20.90;10.57;;;;;;;;;;6195776;23;20027;-85
2023/10/11 06:13:39;;;;;;;21.33;10.10;;;;;;;;;;6195607;23;20525;-85
2023/10/11 06:16:07;;;;;;;28.25;10.50;;;;;;;;;;6247579;23;20020;-85
2023/10/11 06:18:39;;;;;;;20.30;10.45;;;;;;;;;;6220048;23;20051;-84
2023/10/11 06:21:08;;;;;;;23.58;10.65;;;;;;;;;;6194694;23;20016;-83
2023/10/11 06:23:38;;;;;;;23.45;10.80;;;;;;;;;;6194230;23;20034;-85
2023/10/11 06:26:28;;;;;;;20.15;10.52;;;;;;;;;;6194704;23;20020;-85
2023/10/11 06:29:02;;;;;;;21.90;10.25;;;;;;;;;;6219552;23;20016;-84
2023/10/11 06:31:33;;;;;;;18.45;9.57;;;;;;;;;;6194077;23;20385;-87
2023/10/11 06:34:03;;;;;;;25.70;10.23;;;;;;;;;;6194727;23;20102;-87
2023/10/11 06:36:31;;;;;;;20.73;10.27;;;;;;;;;;6194491;23;20027;-86
2023/10/11 06:38:57;;;;;;;23.58;10.02;;;;;;;;;;6194250;23;20341;-86
2023/10/11 06:41:45;;;;;;;22.55;10.30;;;;;;;;;;6193766;23;20416;-85
2023/10/11 06:44:11;;;;;;;22.92;9.88;;;;;;;;;;6193643;23;20023;-84
2023/10/11 06:46:43;;;;;;;18.33;10.68;;;;;;;;;;6195163;23;20013;-85
2023/10/11 06:49:19;;;;;;;20.58;9.75;;;;;;;;;;6195033;23;20031;-88
2023/10/11 06:51:45;;;;;;;20.98;9.35;;;;;;;;;;6194359;23;20039;-87
2023/10/11 06:54:15;;;;;;;24.02;9.90;;;;;;;;;;6193677;23;20020;-85
2023/10/11 06:56:42;;;;;;;21.75;9.88;;;;;;;;;;6219817;23;20022;-85
2023/10/11 06:59:08;;;;;;;23.42;9.80;;;;;;;;;;6219400;23;20047;-85
2023/10/11 07:01:36;;;;;;;17.77;10.77;;;;;;;;;;6194359;23;20020;-84
2023/10/11 07:04:02;;;;;;;20.23;9.30;;;;;;;;;;6193420;23;20142;-84
2023/10/11 07:06:29;;;;;;;21.80;10.27;;;;;;;;;;6194107;23;20028;-84
2023/10/11 07:08:58;;;;;;;21.40;10.60;;;;;;;;;;6219057;23;20448;-83
2023/10/11 07:11:41;;;;;;;20.58;10.45;;;;;;;;;;6193469;23;20050;-85
2023/10/11 07:14:18;;;;;;;19.13;9.52;;;;;;;;;;6192718;23;20065;-84
2023/10/11 07:16:44;;;;;;;22.08;9.77;;;;;;;;;;6195981;23;20016;-84
2023/10/11 07:19:11;;;;;;;21.35;9.70;;;;;;;;;;6196073;23;20376;-84
2023/10/11 07:21:53;;;;;;;17.73;10.05;;;;;;;;;;6193612;23;20474;-82
2023/10/11 07:24:19;;;;;;;18.17;10.07;;;;;;;;;;6194643;23;20020;-84
2023/10/11 07:29:20;;;;;;;22.33;9.90;;;;;;;;;;6220309;23;20043;-84
2023/10/11 07:31:49;;;;;;;19.80;9.10;;;;;;;;;;6194247;23;20149;-87
2023/10/11 07:34:20;;;;;;;16.25;9.07;;;;;;;;;;6220039;23;20012;-86
2023/10/11 07:36:50;;;;;;;16.95;9.23;;;;;;;;;;6218777;23;20012;-86
2023/10/11 07:41:44;;;;;;;15.43;8.63;;;;;;;;;;6245694;23;20020;-86
2023/10/11 07:44:10;;;;;;;15.00;8.20;;;;;;;;;;6218310;23;20027;-86
2023/10/11 07:46:40;;;;;;;16.13;8.55;;;;;;;;;;6193561;23;20349;-86
2023/10/11 07:49:07;;;;;;;17.55;7.93;;;;;;;;;;6193679;23;20031;-86
2023/10/11 07:51:40;;;;;;;16.55;7.07;;;;;;;;;;6194184;23;20020;-84
2023/10/11 07:54:07;;;;;;;15.45;7.63;;;;;;;;;;6194150;23;20027;-84
2023/10/11 07:56:37;;;;;;;13.30;7.97;;;;;;;;;;6194020;23;20016;-84
2023/10/11 07:59:08;;;;;;;14.75;7.50;;;;;;;;;;6193074;23;20027;-84
2023/10/11 08:01:44;;;;;;;14.82;8.18;;;;;;;;;;6218951;23;20024;-84
2023/10/11 08:07:12;;;;;;;12.73;7.40;;;;;;;;;;6192797;23;20020;-84
2023/10/11 08:09:48;;;;;;;12.07;6.80;;;;;;;;;;6192346;23;20451;-84
2023/10/11 08:12:20;;;;;;;14.65;6.70;;;;;;;;;;6193339;23;20098;-83
2023/10/11 08:14:46;;;;;;;14.07;6.80;;;;;;;;;;6193369;23;20389;-83
2023/10/11 08:17:13;;;;;;;12.57;7.22;;;;;;;;;;6194582;23;20017;-82
2023/10/11 08:19:43;;;;;;;13.75;7.45;;;;;;;;;;6218945;23;20024;-83
2023/10/11 08:22:09;;;;;;;15.90;9.00;;;;;;;;;;6193899;23;20050;-83
2023/10/11 08:24:48;;;;;;;13.88;8.55;;;;;;;;;;6217911;23;20031;-84
2023/10/11 08:27:22;;;;;;;18.27;9.30;;;;;;;;;;6245570;23;20126;-84
2023/10/11 08:29:53;;;;;;;16.20;10.35;;;;;;;;;;6218625;23;20020;-83
2023/10/11 08:32:19;;;;;;;16.33;9.15;;;;;;;;;;6218335;23;20473;-83
2023/10/11 08:34:46;;;;;;;16.73;9.68;;;;;;;;;;6192694;23;20445;-83
2023/10/11 08:37:14;;;;;;;16.40;10.18;;;;;;;;;;6218338;23;20012;-83
2023/10/11 08:39:46;;;;;;;13.98;9.35;;;;;;;;;;6217894;23;20082;-83
2023/10/11 08:42:14;;;;;;;17.98;8.85;;;;;;;;;;6218656;23;20016;-84
2023/10/11 08:44:44;;;;;;;12.90;7.95;;;;;;;;;;6217859;23;20031;-84
2023/10/11 08:47:13;;;;;;;15.77;8.23;;;;;;;;;;6193056;23;20020;-84
2023/10/11 08:49:48;;;;;;;13.70;7.80;;;;;;;;;;6193840;23;20028;-84
2023/10/11 08:52:18;;;;;;;17.75;8.25;;;;;;;;;;6193828;23;20023;-83
2023/10/11 08:54:44;;;;;;;14.73;8.20;;;;;;;;;;6245427;23;20020;-83
2023/10/11 08:57:13;;;;;;;15.05;7.88;;;;;;;;;;6193764;23;20016;-84
2023/10/11 08:59:49;;;;;;;14.32;8.20;;;;;;;;;;6192876;23;20024;-83
2023/10/11 09:02:17;;;;;;;;;;;;;;;;;;6194049;23;20016;-83
2023/10/11 09:04:56;;;;;;;10.98;7.30;;;;;;;;;;6193140;23;19941;-84
2023/10/11 09:07:37;;;;;;;8.32;6.63;;;;;;;;;;6193205;23;20020;-84
2023/10/11 09:10:23;;;;;;;12.18;7.22;;;;;;;;;;6218685;23;20452;-83
2023/10/11 09:12:49;;;;;;;11.27;6.30;;;;;;;;;;6218883;23;20083;-84
2023/10/11 09:15:16;;;;;;;10.05;6.38;;;;;;;;;;6193373;23;20395;-84
2023/10/11 09:17:42;;;;;;;12.38;7.15;;;;;;;;;;6218008;23;20047;-86
2023/10/11 09:20:23;;;;;;;11.55;6.25;;;;;;;;;;6218797;23;20094;-85
2023/10/11 09:22:55;;;;;;;11.10;6.22;;;;;;;;;;6193411;23;20027;-84
2023/10/11 09:25:24;;;;;;;11.45;6.43;;;;;;;;;;6193264;23;20023;-85
2023/10/11 09:27:50;;;;;;;23.10;6.80;;;;;;;;;;6193846;23;20058;-84
2023/10/11 09:30:20;;;;;;;11.23;6.50;;;;;;;;;;6195318;23;20016;-85
2023/10/11 09:32:51;;;;;;;15.48;7.63;;;;;;;;;;6195238;23;20091;-85
2023/10/11 09:35:26;;;;;;;17.15;7.80;;;;;;;;;;6220403;23;20012;-85
2023/10/11 09:37:59;;;;;;;56.83;18.13;;;;;;;;;;6219991;23;20020;-86
2023/10/11 09:40:30;;;;;;;21.88;10.43;;;;;;;;;;6220407;23;20040;-85
2023/10/11 09:43:00;;;;;;;21.38;10.50;;;;;;;;;;6194553;23;20012;-85
2023/10/11 09:45:29;;;;;;;30.90;11.48;;;;;;;;;;6246822;23;20023;-86
2023/10/11 09:47:55;;;;;;;42.95;16.13;;;;;;;;;;6195328;23;20027;-85
2023/10/11 09:50:23;;;;;;;30.42;12.48;;;;;;;;;;6194786;23;20012;-85
2023/10/11 09:52:53;;;;;;;15.85;7.38;;;;;;;;;;6195276;23;20024;-86
2023/10/11 09:55:31;;;;;;;14.07;6.82;;;;;;;;;;6195181;23;20031;-86
2023/10/11 09:58:11;;;;;;;20.88;9.02;;;;;;;;;;6194742;23;20016;-86
2023/10/11 10:00:56;;;;;;;13.80;6.82;;;;;;;;;;6195278;23;20099;-86
2023/10/11 10:03:24;;;;;;;12.40;6.30;;;;;;;;;;6194676;23;20016;-85
2023/10/11 10:06:19;;;;;;;20.55;9.05;;;;;;;;;;6219564;23;20020;-85
2023/10/11 10:09:23;;;;;;;34.60;10.82;;;;;;;;;;6247306;23;20020;-86
2023/10/11 10:12:09;;;;;;;11.93;5.75;;;;;;;;;;6187021;23;20043;-85
2023/10/11 10:14:36;;;;;;;37.45;13.05;;;;;;;;;;6194489;23;20024;-84
2023/10/11 10:17:10;;;;;;;12.50;6.65;;;;;;;;;;6219960;23;20019;-84
2023/10/11 10:19:39;;;;;;;10.50;5.60;;;;;;;;;;6220008;23;20154;-85
2023/10/11 10:22:23;;;;;;;10.82;5.68;;;;;;;;;;6195848;23;20042;-86
2023/10/11 10:24:55;;;;;;;11.35;6.07;;;;;;;;;;6194602;23;20290;-84
2023/10/11 10:27:24;;;;;;;11.02;5.50;;;;;;;;;;6194630;23;20318;-84
2023/10/11 10:29:59;;;;;;;12.05;5.78;;;;;;;;;;6246631;23;20016;-84
2023/10/11 10:32:26;;;;;;;12.00;6.35;;;;;;;;;;6220227;23;20020;-84
2023/10/11 10:35:18;;;;;;;13.57;6.05;;;;;;;;;;6194752;23;20091;-84
2023/10/11 10:37:47;;;;;;;12.05;5.93;;;;;;;;;;6220605;23;20023;-84
2023/10/11 10:40:24;;;;;;;12.02;6.35;;;;;;;;;;6193947;23;20016;-84
2023/10/11 10:43:08;;;;;;;10.55;5.55;;;;;;;;;;6247092;23;20072;-85
2023/10/11 10:45:35;;;;;;;12.85;5.68;;;;;;;;;;6194965;23;20016;-84
2023/10/11 10:48:23;;;;;;;11.93;5.80;;;;;;;;;;6194901;23;20340;-84
2023/10/11 10:50:50;;;;;;;9.88;5.63;;;;;;;;;;6195322;23;20023;-84
2023/10/11 10:53:16;;;;;;;11.30;5.53;;;;;;;;;;6221315;23;20023;-84
2023/10/11 10:55:46;;;;;;;12.35;5.90;;;;;;;;;;6195863;23;20026;-84
2023/10/11 10:58:19;;;;;;;11.43;5.78;;;;;;;;;;6194760;23;20493;-84
2023/10/11 11:00:47;;;;;;;12.55;5.50;;;;;;;;;;6195064;23;20134;-85
2023/10/11 11:03:20;;;;;;;10.40;5.63;;;;;;;;;;6196712;23;20030;-84
2023/10/11 11:06:01;;;;;;;10.98;5.10;;;;;;;;;;6221025;23;20020;-84
2023/10/11 11:08:28;;;;;;;10.68;4.95;;;;;;;;;;6195468;23;20012;-84
2023/10/11 11:11:18;;;;;;;10.68;5.20;;;;;;;;;;6220673;23;20048;-84
2023/10/11 11:13:44;;;;;;;13.02;5.30;;;;;;;;;;6221228;23;20016;-84
2023/10/11 11:16:17;;;;;;;10.85;4.85;;;;;;;;;;6221059;23;20101;-85
2023/10/11 11:18:44;;;;;;;10.15;5.13;;;;;;;;;;6196405;23;20016;-85
2023/10/11 11:21:17;;;;;;;9.80;5.30;;;;;;;;;;6196686;23;20027;-84
2023/10/11 11:23:44;;;;;;;13.88;5.50;;;;;;;;;;6195802;23;20012;-84
2023/10/11 11:26:17;;;;;;;15.48;5.47;;;;;;;;;;6193600;23;20091;-85
2023/10/11 11:28:47;;;;;;;10.35;4.90;;;;;;;;;;6194396;23;20372;-85
2023/10/11 11:31:30;;;;;;;10.95;4.90;;;;;;;;;;6220005;23;20024;-84
2023/10/11 11:34:26;;;;;;;16.38;5.60;;;;;;;;;;6220253;23;20023;-84
2023/10/11 11:37:05;;;;;;;9.75;4.97;;;;;;;;;;6194303;23;20090;-84
2023/10/11 11:39:39;;;;;;;11.35;4.80;;;;;;;;;;6195052;23;20012;-84
2023/10/11 11:42:24;;;;;;;17.15;5.43;;;;;;;;;;6194684;23;20449;-85
2023/10/11 11:44:51;;;;;;;13.07;5.88;;;;;;;;;;6219004;23;20031;-84
2023/10/11 11:47:23;;;;;;;13.27;4.53;;;;;;;;;;6194348;23;20012;-85
2023/10/11 11:49:49;;;;;;;12.85;5.03;;;;;;;;;;6194041;23;20016;-85
2023/10/11 11:52:18;;;;;;;14.15;5.90;;;;;;;;;;6219383;23;20016;-84
2023/10/11 11:54:45;;;;;;;11.23;5.32;;;;;;;;;;6219620;23;20066;-84
2023/10/11 11:57:11;;;;;;;11.70;5.13;;;;;;;;;;6218769;23;20019;-84
2023/10/11 11:59:43;;;;;;;15.02;5.93;;;;;;;;;;6193874;23;20027;-84
2023/10/11 12:02:16;;;;;;;12.30;5.28;;;;;;;;;;6192823;23;20008;-85
2023/10/11 12:04:47;;;;;;;13.10;5.63;;;;;;;;;;6192536;23;20547;-84
2023/10/11 12:07:13;;;;;;;13.07;5.50;;;;;;;;;;6192986;23;20016;-84
2023/10/11 12:09:39;;;;;;;15.45;6.10;;;;;;;;;;6192679;23;20074;-84
2023/10/11 12:12:06;;;;;;;10.00;5.03;;;;;;;;;;6191996;23;20020;-85
2023/10/11 12:14:41;;;;;;;11.38;5.70;;;;;;;;;;6192242;23;20020;-85
2023/10/11 12:17:10;;;;;;;14.85;5.57;;;;;;;;;;6217937;23;20020;-84
2023/10/11 12:19:42;;;;;;;13.88;5.15;;;;;;;;;;6217374;23;20012;-85
2023/10/11 12:22:10;;;;;;;10.30;5.28;;;;;;;;;;6192411;23;20024;-84
2023/10/11 12:24:44;;;;;;;10.63;5.18;;;;;;;;;;6167512;23;1159038;-84
2023/10/11 12:27:11;;;;;;;13.73;5.32;;;;;;;;;;6193803;23;20027;-84
2023/10/11 12:29:38;;;;;;;14.20;5.30;;;;;;;;;;6192795;23;20035;-84
2023/10/11 12:32:04;;;;;;;12.73;5.70;;;;;;;;;;6193731;23;20012;-84
2023/10/11 12:34:32;;;;;;;8.88;5.00;;;;;;;;;;6193891;23;20028;-84
2023/10/11 12:37:00;;;;;;;13.50;5.50;;;;;;;;;;6219220;23;20061;-85
2023/10/11 12:39:31;;;;;;;13.40;4.93;;;;;;;;;;6193322;23;20432;-85
2023/10/11 12:41:59;;;;;;;11.88;5.68;;;;;;;;;;6218865;23;20055;-84
2023/10/11 12:44:28;;;;;;;9.05;4.90;;;;;;;;;;6193255;23;20027;-84
2023/10/11 12:46:54;;;;;;;10.70;5.55;;;;;;;;;;6218206;23;20187;-84
2023/10/11 12:49:20;;;;;;;9.73;5.18;;;;;;;;;;6193362;23;20016;-84
2023/10/11 12:51:54;;;;;;;12.77;5.78;;;;;;;;;;6193818;23;20012;-85
2023/10/11 12:54:20;;;;;;;11.93;5.15;;;;;;;;;;6218815;23;20360;-84
2023/10/11 12:56:50;;;;;;;12.30;5.68;;;;;;;;;;6218806;23;20445;-84
2023/10/11 12:59:22;;;;;;;12.80;5.50;;;;;;;;;;6245372;23;20082;-84
2023/10/11 13:01:52;;;;;;;11.88;5.50;;;;;;;;;;6193257;23;20016;-84
2023/10/11 13:04:23;;;;;;;15.95;6.15;;;;;;;;;;6218995;23;20012;-85
2023/10/11 13:06:50;;;;;;;13.57;5.78;;;;;;;;;;6195412;23;20016;-85
2023/10/11 13:09:27;;;;;;;15.70;5.80;;;;;;;;;;6219810;23;20012;-84
2023/10/11 13:12:02;;;;;;;14.82;5.68;;;;;;;;;;6195415;23;20087;-84
2023/10/11 13:14:28;;;;;;;10.82;5.70;;;;;;;;;;6195269;23;20069;-85
2023/10/11 13:16:58;;;;;;;13.18;5.88;;;;;;;;;;6195790;23;20062;-85
2023/10/11 13:19:24;;;;;;;12.95;6.03;;;;;;;;;;6219983;23;20020;-86
2023/10/11 13:21:53;;;;;;;14.38;5.30;;;;;;;;;;6219963;23;20024;-85
2023/10/11 13:24:23;;;;;;;13.45;6.03;;;;;;;;;;6193749;23;20475;-85
2023/10/11 13:26:49;;;;;;;15.00;6.28;;;;;;;;;;6193449;23;20043;-83
2023/10/11 13:29:18;;;;;;;11.73;5.60;;;;;;;;;;6195046;23;20040;-85
2023/10/11 13:31:54;;;;;;;11.80;5.05;;;;;;;;;;6195685;23;20340;-85
2023/10/11 13:34:44;;;;;;;13.73;5.28;;;;;;;;;;6195167;23;20043;-86
2023/10/11 13:37:13;;;;;;;11.95;4.80;;;;;;;;;;6196064;23;20017;-85
2023/10/11 13:39:45;;;;;;;10.82;4.93;;;;;;;;;;6195106;23;20020;-86
2023/10/11 13:42:21;;;;;;;12.32;4.60;;;;;;;;;;6195780;23;20014;-87
2023/10/11 13:45:09;;;;;;;12.65;5.00;;;;;;;;;;6194976;23;20016;-87
2023/10/11 13:47:37;;;;;;;16.55;5.97;;;;;;;;;;6179356;23;20012;-84
2023/10/11 13:50:08;;;;;;;16.13;6.07;;;;;;;;;;6220074;23;20012;-85
2023/10/11 13:52:37;;;;;;;14.25;5.50;;;;;;;;;;6245465;23;20039;-85
2023/10/11 13:55:26;;;;;;;15.23;5.30;;;;;;;;;;6194005;23;20432;-85
2023/10/11 13:57:55;;;;;;;14.52;5.88;;;;;;;;;;6218496;23;20032;-86
2023/10/11 14:06:00;;;;;;;14.10;5.43;;;;;;;;;;6218672;23;20031;-85
2023/10/11 14:08:44;;;;;;;7.53;4.90;;;;;;;;;;6194523;23;20016;-85
2023/10/11 14:11:19;;;;;;;13.82;5.47;;;;;;;;;;6194472;23;20020;-85
2023/10/11 14:13:54;;;;;;;13.45;4.90;;;;;;;;;;6194314;23;20023;-85
2023/10/11 14:16:37;;;;;;;13.95;5.22;;;;;;;;;;6194673;23;20020;-86
2023/10/11 14:19:35;;;;;;;19.65;5.70;;;;;;;;;;6193986;23;20106;-85
2023/10/11 14:22:21;;;;;;;15.52;5.25;;;;;;;;;;6045472;23;20034;-85
2023/10/11 14:24:54;;;;;;;13.50;5.45;;;;;;;;;;6045783;23;20022;-84
2023/10/11 14:27:20;;;;;;;15.38;5.57;;;;;;;;;;6194718;23;20019;-84
2023/10/11 14:29:46;;;;;;;17.55;5.07;;;;;;;;;;6195016;23;20019;-84
2023/10/11 14:32:15;;;;;;;14.13;4.93;;;;;;;;;;6196068;23;20043;-84
2023/10/11 14:34:43;;;;;;;11.95;5.05;;;;;;;;;;6196921;23;20016;-84
2023/10/11 14:37:15;;;;;;;11.13;5.10;;;;;;;;;;6196996;23;20066;-85
2023/10/11 14:39:50;;;;;;;13.73;5.20;;;;;;;;;;6194512;23;20016;-84
2023/10/11 14:42:17;;;;;;;11.77;5.05;;;;;;;;;;6194532;23;20014;-84
2023/10/11 14:44:47;;;;;;;15.32;4.90;;;;;;;;;;6219177;23;20020;-83
2023/10/11 14:47:13;;;;;;;14.07;5.28;;;;;;;;;;6193270;23;20090;-84
2023/10/11 14:49:40;;;;;;;13.80;4.88;;;;;;;;;;6193357;23;20012;-83
2023/10/11 14:52:07;;;;;;;10.27;4.60;;;;;;;;;;6194825;23;20023;-83
2023/10/11 14:54:34;;;;;;;11.23;4.70;;;;;;;;;;6194855;23;20017;-83
2023/10/11 14:57:00;;;;;;;12.77;4.82;;;;;;;;;;6193556;23;20567;-84
2023/10/11 14:59:27;;;;;;;15.05;5.05;;;;;;;;;;6194519;23;20035;-83
2023/10/11 15:01:53;;;;;;;12.27;5.03;;;;;;;;;;6194212;23;20078;-83
2023/10/11 15:04:19;;;;;;;13.57;5.28;;;;;;;;;;6246409;23;20012;-83
2023/10/11 15:06:45;;;;;;;12.35;4.75;;;;;;;;;;6219583;23;20091;-83
2023/10/11 15:09:11;;;;;;;13.50;5.60;;;;;;;;;;6219768;23;20059;-83
2023/10/11 15:11:40;;;;;;;20.70;6.13;;;;;;;;;;6192245;23;20020;-85
2023/10/11 15:14:07;;;;;;;11.82;4.80;;;;;;;;;;6193922;23;20020;-84
2023/10/11 15:16:34;;;;;;;13.30;5.40;;;;;;;;;;6193373;23;20019;-84
2023/10/11 15:19:01;;;;;;;12.57;5.50;;;;;;;;;;6194111;23;20015;-85
2023/10/11 15:21:45;;;;;;;15.60;5.15;;;;;;;;;;6194090;23;20016;-86
2023/10/11 15:24:13;;;;;;;15.30;6.13;;;;;;;;;;6195060;23;20024;-85
2023/10/11 15:26:40;;;;;;;14.73;6.00;;;;;;;;;;6245607;23;20016;-86
2023/10/11 15:29:46;;;;;;;14.63;6.30;;;;;;;;;;6103929;23;20025;-88